Time;durP1;ratioP1;P1;durP2;ratioP2;P2;SDS_P1;SDS_P2;PMS_P1;PMS_P2;Temp;Humidity;BMP_temperature;BMP_pressure;BME280_temperature;BME280_humidity;BME280_pressure;Samples;Min_cycle;Max_cycle;Signal;HPM_P1;HPM_P2
2022/11/25 00:01:33;;;;;;;82.60;29.20;;;;;;;1.82;82.37;100121.48;126582;1281;97970;-74
2022/11/25 00:04:35;;;;;;;72.00;26.30;;;;;;;1.83;82.21;100118.95;126646;1288;98066;-74
2022/11/25 00:07:38;;;;;;;81.50;28.80;;;;;;;1.84;82.33;100115.67;126655;1288;99275;-75
2022/11/25 00:10:40;;;;;;;77.00;28.50;;;;;;;1.89;82.35;100112.38;126586;1280;99168;-74
2022/11/25 00:13:45;;;;;;;77.90;30.40;;;;;;;1.93;82.31;100113.67;126564;1273;98089;-74
2022/11/25 00:16:47;;;;;;;72.80;28.70;;;;;;;1.95;82.32;100115.98;126579;1280;98009;-74
2022/11/25 00:19:50;;;;;;;78.70;28.90;;;;;;;1.96;82.28;100112.07;126571;1281;97993;-74
2022/11/25 00:22:53;;;;;;;72.90;27.50;;;;;;;1.96;82.22;100113.16;126614;1295;97994;-74
2022/11/25 00:25:55;;;;;;;74.20;29.50;;;;;;;1.95;82.30;100110.91;126574;1290;99163;-74
2022/11/25 00:29:00;;;;;;;71.00;29.10;;;;;;;1.92;82.10;100113.58;126531;1288;98695;-74
2022/11/25 00:32:03;;;;;;;89.60;32.30;;;;;;;1.88;82.34;100114.89;126569;1280;98019;-74
2022/11/25 00:35:09;;;;;;;84.30;29.40;;;;;;;1.89;82.23;100117.79;126592;1277;98071;-74
2022/11/25 00:38:11;;;;;;;62.70;25.70;;;;;;;1.91;82.39;100120.32;126766;1279;97977;-74
2022/11/25 00:44:35;;;;;;;76.30;29.10;;;;;;;1.98;82.36;100125.48;126603;1291;99038;-74
2022/11/25 00:47:37;;;;;;;82.90;29.60;;;;;;;1.99;82.53;100131.92;126733;1280;98052;-74
2022/11/25 00:50:42;;;;;;;84.90;30.80;;;;;;;2.02;82.43;100131.91;126666;1279;98111;-74
2022/11/25 00:53:45;;;;;;;134.20;44.20;;;;;;;2.02;82.44;100133.52;126872;1288;98399;-75
2022/11/25 00:56:47;;;;;;;86.40;32.20;;;;;;;2.00;82.44;100137.45;126523;1274;99139;-75
2022/11/25 00:59:50;;;;;;;83.00;31.70;;;;;;;2.00;82.36;100137.08;126504;1272;99265;-74
2022/11/25 01:02:53;;;;;;;76.50;30.40;;;;;;;2.01;82.34;100138.48;126544;1284;98742;-73
2022/11/25 01:05:59;;;;;;;94.40;33.00;;;;;;;1.99;82.51;100141.21;126575;1283;98722;-74
2022/11/25 01:09:03;;;;;;;88.60;30.40;;;;;;;1.99;82.47;100143.35;126655;1279;98080;-75
2022/11/25 01:12:06;;;;;;;72.60;27.60;;;;;;;1.99;82.45;100139.97;126571;1274;98081;-73
2022/11/25 01:15:11;;;;;;;76.80;29.80;;;;;;;2.05;82.46;100141.73;126592;1281;98679;-74
2022/11/25 01:18:14;;;;;;;68.70;27.20;;;;;;;2.10;82.42;100142.80;126487;1288;98745;-74
2022/11/25 01:21:18;;;;;;;70.10;27.30;;;;;;;2.12;82.32;100143.52;126634;1279;99144;-74
2022/11/25 01:24:22;;;;;;;70.50;28.30;;;;;;;2.13;82.22;100148.20;126561;1280;99053;-75
2022/11/25 01:27:24;;;;;;;72.70;27.70;;;;;;;2.13;82.20;100153.79;126696;1283;98069;-74
2022/11/25 01:30:27;;;;;;;59.70;25.40;;;;;;;2.00;81.43;100158.70;126534;1283;99160;-74
2022/11/25 01:33:31;;;;;;;58.00;24.90;;;;;;;1.76;81.87;100161.31;126577;1269;97995;-75
2022/11/25 01:36:34;;;;;;;61.40;25.90;;;;;;;1.76;82.28;100157.08;126610;1279;99097;-75
2022/11/25 01:39:38;;;;;;;74.00;26.80;;;;;;;1.74;82.21;100156.52;126485;1280;99042;-75
2022/11/25 01:42:44;;;;;;;71.20;25.30;;;;;;;1.68;82.02;100159.85;126566;1280;99080;-74
2022/11/25 01:45:47;;;;;;;61.40;24.10;;;;;;;1.59;82.27;100162.57;126729;1280;99052;-75
2022/11/25 01:48:54;;;;;;;62.10;25.20;;;;;;;1.49;82.38;100161.79;126730;1283;97980;-74
2022/11/25 01:52:02;;;;;;;58.70;24.00;;;;;;;1.45;82.58;100159.22;126800;1280;99138;-74
2022/11/25 01:55:10;;;;;;;66.40;25.60;;;;;;;1.53;82.82;100159.56;126560;1288;98749;-74
2022/11/25 01:58:17;;;;;;;67.40;26.90;;;;;;;1.54;82.37;100161.95;126570;1291;97988;-74
2022/11/25 02:01:20;;;;;;;57.70;24.50;;;;;;;1.46;82.63;100165.52;126461;1291;98724;-74
2022/11/25 02:04:27;;;;;;;58.00;24.50;;;;;;;1.33;82.71;100162.96;126616;1280;98078;-74
2022/11/25 02:07:34;;;;;;;64.30;25.80;;;;;;;1.22;83.23;100166.80;126592;1288;98762;-74
2022/11/25 02:10:38;;;;;;;61.70;23.10;;;;;;;1.14;83.25;100162.02;126559;1288;98010;-74
2022/11/25 02:13:42;;;;;;;61.70;23.30;;;;;;;1.25;83.51;100158.08;126766;1284;99160;-75
2022/11/25 02:16:45;;;;;;;57.00;23.10;;;;;;;1.41;83.18;100159.65;126517;1289;99084;-75
2022/11/25 02:19:58;;;;;;;63.70;26.60;;;;;;;1.42;82.93;100162.38;126476;1283;99144;-74
2022/11/25 02:23:08;;;;;;;60.90;25.60;;;;;;;1.33;83.03;100162.98;126551;1288;99174;-73
2022/11/25 02:26:11;;;;;;;58.50;23.70;;;;;;;1.22;83.23;100164.17;126510;1281;99143;-74
2022/11/25 02:29:14;;;;;;;63.70;24.30;;;;;;;1.16;83.19;100168.40;126653;1282;98072;-74
2022/11/25 02:32:21;;;;;;;59.20;23.70;;;;;;;1.12;83.60;100176.17;126602;1281;99147;-74
2022/11/25 02:35:27;;;;;;;58.20;23.40;;;;;;;1.05;83.65;100174.20;126514;1290;99039;-74
2022/11/25 02:38:36;;;;;;;59.30;24.20;;;;;;;0.97;83.92;100175.34;126515;1288;98887;-75
2022/11/25 02:41:43;;;;;;;69.10;29.10;;;;;;;0.88;84.42;100178.20;126596;1280;98110;-75
2022/11/25 02:44:47;;;;;;;65.70;24.80;;;;;;;0.81;84.09;100183.50;126533;1281;98017;-75
2022/11/25 02:47:50;;;;;;;65.30;24.50;;;;;;;0.83;84.24;100185.33;126509;1287;98354;-75
2022/11/25 02:50:52;;;;;;;61.20;26.40;;;;;;;0.94;84.32;100191.64;126478;1282;98247;-74
2022/11/25 02:53:56;;;;;;;67.30;26.70;;;;;;;1.00;84.07;100192.13;126549;1279;98084;-75
2022/11/25 02:56:59;;;;;;;62.80;25.20;;;;;;;1.00;84.35;100190.06;126586;1281;98002;-74
2022/11/25 03:00:03;;;;;;;58.30;25.20;;;;;;;0.94;84.07;100190.27;126525;1281;99167;-75
2022/11/25 03:03:06;;;;;;;59.30;23.60;;;;;;;0.97;84.20;100185.51;126581;1287;98078;-74
2022/11/25 03:06:09;;;;;;;57.00;24.60;;;;;;;1.00;84.16;100191.28;126570;1298;98014;-74
2022/11/25 03:09:12;;;;;;;56.80;23.50;;;;;;;0.98;84.08;100193.17;126521;1287;99164;-74
2022/11/25 03:12:18;;;;;;;65.60;25.70;;;;;;;0.97;84.30;100193.17;126551;1281;97981;-74
2022/11/25 03:15:21;;;;;;;59.00;23.50;;;;;;;0.94;84.62;100192.69;126505;1280;98032;-73
2022/11/25 03:18:24;;;;;;;48.50;21.50;;;;;;;0.88;84.78;100189.73;126590;1277;98001;-74
2022/11/25 03:21:27;;;;;;;54.40;21.70;;;;;;;0.84;84.73;100191.77;126574;1281;99302;-73
2022/11/25 03:24:29;;;;;;;54.20;23.00;;;;;;;0.86;84.53;100194.94;126584;1281;98199;-75
2022/11/25 03:27:35;;;;;;;49.10;22.20;;;;;;;0.91;84.50;100195.52;126550;1284;99535;-74
2022/11/25 03:30:38;;;;;;;50.70;21.50;;;;;;;0.99;84.60;100194.30;126568;1281;98084;-74
2022/11/25 03:33:41;;;;;;;49.90;21.40;;;;;;;1.10;84.45;100198.92;126631;1290;99115;-74
2022/11/25 03:36:44;;;;;;;55.10;21.80;;;;;;;1.09;84.28;100201.80;126675;1275;97984;-74
2022/11/25 03:39:47;;;;;;;50.60;21.50;;;;;;;1.10;84.33;100205.02;126483;1284;98740;-75
2022/11/25 03:42:50;;;;;;;39.40;18.00;;;;;;;1.11;84.30;100205.48;126752;1279;97998;-74
2022/11/25 03:45:53;;;;;;;47.50;19.90;;;;;;;1.15;84.32;100203.81;126602;1291;99148;-74
2022/11/25 03:48:55;;;;;;;52.70;22.70;;;;;;;1.29;84.34;100201.80;126687;1291;99131;-74
2022/11/25 03:51:59;;;;;;;51.00;23.00;;;;;;;1.38;84.08;100200.14;126636;1281;98086;-74
2022/11/25 03:55:02;;;;;;;113.40;43.50;;;;;;;1.45;84.08;100196.73;126627;1275;98883;-76
2022/11/25 03:58:07;;;;;;;111.30;56.20;;;;;;;1.54;84.10;100196.50;126691;1282;98069;-75
2022/11/25 04:01:10;;;;;;;66.60;29.60;;;;;;;1.62;84.03;100198.30;126553;1280;98994;-73
2022/11/25 04:04:14;;;;;;;51.40;20.70;;;;;;;1.68;84.08;100197.27;126648;1281;98466;-74
2022/11/25 04:07:17;;;;;;;53.00;22.30;;;;;;;1.71;84.01;100200.16;126477;1281;98082;-73
2022/11/25 04:10:20;;;;;;;47.40;21.10;;;;;;;1.79;83.92;100201.27;126571;1284;98088;-74
2022/11/25 04:13:23;;;;;;;49.70;21.10;;;;;;;1.88;84.05;100200.83;126570;1277;99104;-74
2022/11/25 04:16:27;;;;;;;49.40;21.90;;;;;;;1.97;84.02;100204.00;126593;1282;98010;-73
2022/11/25 04:19:30;;;;;;;48.80;22.10;;;;;;;1.95;83.60;100205.30;126561;1288;99120;-74
2022/11/25 04:22:33;;;;;;;47.60;20.50;;;;;;;1.90;83.56;100204.90;126556;1288;99636;-73
2022/11/25 04:25:41;;;;;;;49.70;21.50;;;;;;;1.88;83.69;100206.16;126627;1288;98752;-74
2022/11/25 04:28:48;;;;;;;48.90;20.80;;;;;;;1.91;84.05;100204.86;126705;1281;97995;-72
2022/11/25 04:31:50;;;;;;;50.90;23.00;;;;;;;1.95;83.97;100212.67;126579;1281;98082;-71
2022/11/25 04:34:53;;;;;;;50.00;21.10;;;;;;;1.98;83.85;100212.36;126608;1282;98793;-73
2022/11/25 04:37:56;;;;;;;53.90;22.60;;;;;;;2.00;83.88;100218.85;126629;1280;98012;-73
2022/11/25 04:40:59;;;;;;;43.50;19.20;;;;;;;2.04;83.88;100219.67;126625;1282;97995;-73
2022/11/25 04:44:03;;;;;;;47.40;20.90;;;;;;;2.09;83.92;100218.80;126575;1288;98067;-73
2022/11/25 04:47:06;;;;;;;48.30;20.60;;;;;;;2.13;83.82;100223.96;126586;1292;99156;-73
2022/11/25 04:50:13;;;;;;;48.70;20.30;;;;;;;2.19;83.75;100221.98;126540;1280;98434;-74
2022/11/25 04:53:24;;;;;;;45.90;20.10;;;;;;;2.22;83.46;100223.38;126616;1291;98017;-74
2022/11/25 04:56:28;;;;;;;44.70;20.30;;;;;;;2.24;83.67;100223.11;126601;1278;98008;-74
2022/11/25 04:59:40;;;;;;;49.30;21.40;;;;;;;2.24;83.61;100225.40;126544;1277;97999;-75
2022/11/25 05:02:44;;;;;;;46.60;20.30;;;;;;;2.21;83.56;100229.07;126583;1291;98651;-74
2022/11/25 05:05:53;;;;;;;48.80;21.90;;;;;;;2.18;83.69;100232.26;126573;1277;98584;-75
2022/11/25 05:08:56;;;;;;;54.10;22.20;;;;;;;2.15;83.61;100231.73;126561;1281;99048;-74
2022/11/25 05:12:00;;;;;;;53.10;21.40;;;;;;;2.14;83.71;100232.88;126545;1281;99182;-74
2022/11/25 05:15:04;;;;;;;43.30;18.70;;;;;;;2.15;83.55;100233.16;126622;1281;98591;-74
2022/11/25 05:18:08;;;;;;;46.90;20.10;;;;;;;2.20;83.87;100234.41;126483;1277;99211;-73
2022/11/25 05:21:17;;;;;;;47.80;20.50;;;;;;;2.26;83.49;100233.34;126611;1287;97984;-73
2022/11/25 05:24:20;;;;;;;53.50;21.40;;;;;;;2.29;83.49;100236.81;126735;1288;98076;-74
2022/11/25 05:27:25;;;;;;;53.60;22.30;;;;;;;2.31;83.52;100237.02;126510;1285;98084;-74
2022/11/25 05:30:28;;;;;;;52.80;22.70;;;;;;;2.32;83.51;100240.48;126603;1284;97991;-73
2022/11/25 05:33:31;;;;;;;53.30;22.60;;;;;;;2.32;83.54;100243.46;126642;1277;98018;-74
2022/11/25 05:36:34;;;;;;;50.60;21.20;;;;;;;2.28;83.72;100244.39;126399;1281;99153;-74
2022/11/25 05:39:39;;;;;;;55.90;22.30;;;;;;;2.27;83.50;100246.77;126721;1282;98630;-74
2022/11/25 05:43:04;;;;;;;61.40;23.20;;;;;;;2.25;83.59;100249.71;126611;1277;98473;-74
2022/11/25 05:46:10;;;;;;;60.10;23.20;;;;;;;2.23;83.68;100251.05;126672;1288;98115;-73
2022/11/25 05:49:19;;;;;;;52.50;19.50;;;;;;;2.26;83.71;100254.20;126947;1288;98122;-73
2022/11/25 05:52:22;;;;;;;56.50;22.10;;;;;;;2.32;83.58;100258.38;127454;1281;98094;-74
2022/11/25 05:55:30;;;;;;;56.50;23.30;;;;;;;2.37;83.57;100261.00;126635;1282;98642;-73
2022/11/25 05:58:33;;;;;;;63.50;23.80;;;;;;;2.42;83.35;100269.66;126494;1277;98309;-73
2022/11/25 06:01:36;;;;;;;60.60;24.50;;;;;;;2.44;83.31;100268.48;126619;1280;97980;-73
2022/11/25 06:04:39;;;;;;;60.20;24.30;;;;;;;2.44;83.56;100273.92;126530;1288;98480;-74
2022/11/25 06:07:42;;;;;;;70.80;28.80;;;;;;;2.44;83.45;100272.87;126575;1283;98109;-74
2022/11/25 06:10:45;;;;;;;66.00;27.30;;;;;;;2.43;83.39;100275.89;126609;1294;98116;-74
2022/11/25 06:13:48;;;;;;;65.80;25.30;;;;;;;2.43;83.45;100277.33;126817;1288;98751;-73
2022/11/25 06:16:52;;;;;;;75.60;28.60;;;;;;;2.39;83.19;100276.36;126630;1285;99137;-74
2022/11/25 06:20:21;;;;;;;64.00;26.10;;;;;;;2.39;83.51;100279.37;126639;1286;98778;-67
2022/11/25 06:23:24;;;;;;;59.30;24.40;;;;;;;2.42;83.35;100279.88;126431;1282;98083;-72
2022/11/25 06:26:27;;;;;;;60.20;24.10;;;;;;;2.47;83.46;100278.80;126731;1293;98001;-72
2022/11/25 06:29:29;;;;;;;59.20;24.50;;;;;;;2.54;83.32;100281.00;126451;1291;98045;-73
2022/11/25 06:32:32;;;;;;;56.70;23.70;;;;;;;2.60;83.27;100283.24;126531;1281;99124;-72
2022/11/25 06:35:39;;;;;;;56.50;24.00;;;;;;;2.65;83.31;100283.80;126602;1280;98066;-72
2022/11/25 06:38:43;;;;;;;67.20;26.40;;;;;;;2.67;83.35;100285.79;126591;1288;97980;-72
2022/11/25 06:41:46;;;;;;;62.60;27.20;;;;;;;2.68;83.26;100289.89;126616;1294;99128;-72
2022/11/25 06:44:49;;;;;;;71.50;30.90;;;;;;;2.66;83.24;100288.64;126694;1288;98079;-72
2022/11/25 06:47:51;;;;;;;73.80;29.70;;;;;;;2.65;83.11;100286.96;126534;1290;98757;-72
2022/11/25 06:50:59;;;;;;;78.10;31.10;;;;;;;2.63;83.25;100285.50;126585;1275;98650;-73
2022/11/25 06:54:01;;;;;;;66.90;24.80;;;;;;;2.62;83.09;100287.45;126633;1274;99100;-74
2022/11/25 06:57:04;;;;;;;54.90;22.70;;;;;;;2.64;83.14;100289.13;126583;1287;98041;-72
2022/11/25 07:00:09;;;;;;;57.00;23.20;;;;;;;2.69;83.31;100295.13;126516;1289;98109;-73
2022/11/25 07:03:11;;;;;;;65.30;26.60;;;;;;;2.73;83.20;100298.34;126608;1282;99150;-71
2022/11/25 07:06:15;;;;;;;60.60;26.30;;;;;;;2.75;83.20;100300.31;126576;1288;98111;-72
2022/11/25 07:09:18;;;;;;;109.50;51.20;;;;;;;2.80;83.26;100307.39;127693;1282;97977;-72
2022/11/25 07:12:21;;;;;;;125.90;59.60;;;;;;;2.82;83.13;100306.41;126757;1296;97914;-71
2022/11/25 07:15:24;;;;;;;70.40;31.30;;;;;;;2.84;83.27;100308.02;126615;1282;97992;-72
2022/11/25 07:18:29;;;;;;;62.80;26.20;;;;;;;2.85;83.18;100309.34;126547;1281;98069;-72
2022/11/25 07:21:33;;;;;;;60.30;26.30;;;;;;;2.85;83.06;100308.84;126492;1285;97995;-73
2022/11/25 07:24:35;;;;;;;59.90;25.90;;;;;;;2.85;83.05;100313.91;126594;1297;99106;-72
2022/11/25 07:27:38;;;;;;;67.80;26.50;;;;;;;2.87;83.12;100317.11;126586;1282;98086;-73
2022/11/25 07:30:41;;;;;;;56.40;22.70;;;;;;;2.91;83.10;100318.10;126640;1281;98068;-73
2022/11/25 07:33:44;;;;;;;60.30;25.80;;;;;;;2.97;83.24;100316.65;126643;1285;98536;-73
2022/11/25 07:36:48;;;;;;;67.00;27.20;;;;;;;3.01;83.14;100315.48;126564;1286;98488;-72
2022/11/25 07:39:51;;;;;;;58.00;25.50;;;;;;;3.06;82.98;100321.63;126611;1288;98094;-72
2022/11/25 07:42:54;;;;;;;62.80;26.30;;;;;;;3.10;82.97;100321.21;126595;1288;98766;-73
2022/11/25 07:46:06;;;;;;;60.90;27.30;;;;;;;3.13;83.06;100322.53;126641;1281;97989;-72
2022/11/25 07:49:11;;;;;;;62.20;27.40;;;;;;;3.17;83.18;100324.95;126595;1280;98079;-72
2022/11/25 07:52:14;;;;;;;65.60;28.20;;;;;;;3.19;83.01;100325.54;126554;1287;98012;-71
2022/11/25 07:55:17;;;;;;;59.40;25.80;;;;;;;3.21;82.92;100327.13;126550;1286;99169;-73
2022/11/25 07:58:20;;;;;;;63.50;26.50;;;;;;;3.20;82.82;100327.20;126511;1285;98013;-73
2022/11/25 08:01:23;;;;;;;62.70;26.90;;;;;;;3.22;83.01;100328.13;126641;1292;99186;-72
2022/11/25 08:04:26;;;;;;;59.60;23.90;;;;;;;3.26;83.13;100328.70;126570;1291;98083;-73
2022/11/25 08:07:29;;;;;;;56.30;25.90;;;;;;;3.32;82.82;100330.92;126625;1281;98093;-73
2022/11/25 08:10:31;;;;;;;60.60;26.70;;;;;;;3.38;82.72;100332.65;126575;1287;99160;-71
2022/11/25 08:13:34;;;;;;;60.40;28.00;;;;;;;3.42;82.60;100333.24;126550;1287;98016;-73
2022/11/25 08:16:38;;;;;;;72.60;32.40;;;;;;;3.46;82.63;100335.42;126701;1277;98573;-73
2022/11/25 08:19:41;;;;;;;56.50;26.40;;;;;;;3.52;82.64;100333.63;126857;1277;98464;-72
2022/11/25 08:22:43;;;;;;;66.50;32.00;;;;;;;3.59;82.60;100334.23;126513;1289;98077;-73
2022/11/25 08:25:46;;;;;;;60.70;29.40;;;;;;;3.66;82.59;100335.17;126526;1280;98102;-72
2022/11/25 08:28:49;;;;;;;61.70;28.10;;;;;;;3.68;82.52;100331.27;126566;1282;98008;-71
2022/11/25 08:31:52;;;;;;;65.90;31.30;;;;;;;3.72;82.53;100331.05;126607;1275;98753;-72
2022/11/25 08:34:55;;;;;;;76.20;30.70;;;;;;;3.75;82.54;100332.73;126496;1288;99172;-72
2022/11/25 08:37:58;;;;;;;58.00;24.20;;;;;;;3.77;82.38;100333.14;126688;1281;99064;-71
2022/11/25 08:41:02;;;;;;;58.50;24.70;;;;;;;3.81;82.41;100338.14;126550;1280;99206;-72
2022/11/25 08:44:08;;;;;;;59.60;25.90;;;;;;;3.88;82.32;100339.25;126670;1285;99058;-72
2022/11/25 08:47:11;;;;;;;61.70;26.50;;;;;;;3.93;82.35;100342.90;126706;1277;98401;-73
2022/11/25 08:50:15;;;;;;;61.30;25.90;;;;;;;4.00;82.30;100346.13;126542;1291;99144;-73
2022/11/25 08:53:19;;;;;;;56.00;25.80;;;;;;;4.05;82.31;100349.09;126559;1297;98275;-71
2022/11/25 08:56:23;;;;;;;60.30;26.30;;;;;;;4.09;82.15;100350.44;126582;1293;98013;-72
2022/11/25 08:59:26;;;;;;;59.60;25.90;;;;;;;4.11;82.11;100349.06;126630;1294;99106;-73
2022/11/25 09:02:28;;;;;;;69.20;30.40;;;;;;;4.15;82.09;100354.75;126570;1286;98688;-72
2022/11/25 09:05:34;;;;;;;67.60;30.90;;;;;;;4.18;82.12;100354.02;126505;1283;98082;-73
2022/11/25 09:08:39;;;;;;;65.00;28.40;;;;;;;4.21;82.01;100355.54;126509;1291;97980;-73
2022/11/25 09:11:41;;;;;;;58.00;26.70;;;;;;;4.25;81.86;100360.54;126619;1285;98763;-71
2022/11/25 09:14:44;;;;;;;65.90;28.70;;;;;;;4.29;81.97;100362.91;126593;1287;98014;-71
2022/11/25 09:17:47;;;;;;;64.90;29.20;;;;;;;4.32;82.05;100366.39;126572;1285;99150;-72
2022/11/25 09:20:49;;;;;;;62.10;26.20;;;;;;;4.40;81.90;100367.27;126539;1288;99144;-71
2022/11/25 09:23:53;;;;;;;61.50;27.70;;;;;;;4.49;81.84;100362.72;126444;1283;98847;-74
2022/11/25 09:26:56;;;;;;;67.40;30.60;;;;;;;4.55;81.74;100365.09;126675;1285;99074;-72
2022/11/25 09:29:59;;;;;;;74.00;32.40;;;;;;;4.58;81.70;100368.92;126847;1285;98009;-73
2022/11/25 09:33:01;;;;;;;71.20;33.30;;;;;;;4.60;81.51;100369.64;128030;1292;98771;-73
2022/11/25 09:36:05;;;;;;;73.50;32.50;;;;;;;4.61;81.53;100371.89;127851;1282;98086;-74
2022/11/25 09:39:07;;;;;;;73.50;32.70;;;;;;;4.61;81.32;100374.68;126698;1286;98375;-73
2022/11/25 09:49:47;;;;;;;91.40;41.20;;;;;;;4.59;81.43;100374.86;126568;1280;97974;-72
2022/11/25 09:53:03;;;;;;;100.20;42.10;;;;;;;4.58;81.34;100375.09;126700;1285;99102;-72
2022/11/25 09:56:14;;;;;;;94.90;40.90;;;;;;;4.60;81.27;100377.79;126692;1285;99760;-72
2022/11/25 09:59:20;;;;;;;79.90;34.20;;;;;;;4.61;81.24;100381.91;126570;1296;98294;-73
2022/11/25 10:02:28;;;;;;;71.40;29.70;;;;;;;4.66;81.16;100381.00;126619;1282;98006;-73
2022/11/25 10:05:36;;;;;;;66.80;29.30;;;;;;;4.76;81.32;100383.45;126690;1293;99124;-73
2022/11/25 10:08:43;;;;;;;69.20;31.90;;;;;;;4.90;81.24;100380.70;126597;1290;97994;-72
2022/11/25 10:11:51;;;;;;;72.30;32.00;;;;;;;4.99;81.12;100381.59;126518;1280;99134;-72
2022/11/25 10:14:59;;;;;;;69.00;30.30;;;;;;;5.05;80.93;100380.96;126667;1287;98768;-72
2022/11/25 10:18:09;;;;;;;68.00;31.20;;;;;;;5.10;81.06;100381.88;126637;1287;99024;-74
2022/11/25 10:21:12;;;;;;;68.00;30.80;;;;;;;5.11;80.84;100377.34;126526;1285;99053;-72
2022/11/25 10:24:17;;;;;;;69.50;31.10;;;;;;;5.13;80.75;100372.62;126654;1274;98803;-73
2022/11/25 10:27:26;;;;;;;67.00;31.60;;;;;;;5.15;80.86;100377.44;126597;1280;99129;-73
2022/11/25 10:30:37;;;;;;;68.80;31.60;;;;;;;5.20;80.69;100375.46;126468;1284;99715;-70
2022/11/25 10:33:44;;;;;;;71.40;33.80;;;;;;;5.26;80.84;100373.77;126520;1285;98156;-72
2022/11/25 10:36:50;;;;;;;76.70;35.50;;;;;;;5.29;80.73;100369.80;126600;1283;99022;-73
2022/11/25 10:39:53;;;;;;;77.20;36.30;;;;;;;5.35;80.74;100373.77;126614;1288;98003;-73
2022/11/25 10:42:55;;;;;;;77.10;35.00;;;;;;;5.39;80.51;100375.56;126628;1289;99156;-71
2022/11/25 10:46:07;;;;;;;75.00;32.40;;;;;;;5.42;80.41;100379.91;126399;1287;99177;-71
2022/11/25 10:49:19;;;;;;;83.30;33.80;;;;;;;5.49;80.38;100376.42;126636;1285;98564;-73
2022/11/25 10:52:26;;;;;;;90.00;39.30;;;;;;;5.56;80.10;100375.71;126458;1279;98060;-70
2022/11/25 10:55:31;;;;;;;83.20;37.30;;;;;;;5.64;80.39;100376.91;126462;1282;98031;-73
2022/11/25 10:58:35;;;;;;;86.60;38.30;;;;;;;5.71;80.05;100378.27;126606;1301;99156;-73
2022/11/25 11:01:38;;;;;;;82.50;38.70;;;;;;;5.75;79.81;100376.02;126595;1278;99144;-72
2022/11/25 11:04:53;;;;;;;83.80;37.80;;;;;;;5.79;80.00;100377.11;126521;1287;98078;-71
2022/11/25 11:08:15;;;;;;;78.20;37.30;;;;;;;5.82;79.92;100378.16;126434;1281;98781;-73
2022/11/25 11:11:18;;;;;;;;;;;;;;;5.77;79.75;100379.76;126703;1280;98670;-72
2022/11/25 11:14:21;;;;;;;73.30;35.10;;;;;;;5.72;79.81;100381.59;126649;1288;98001;-73
2022/11/25 11:17:34;;;;;;;92.20;44.70;;;;;;;5.70;79.63;100382.38;126614;1286;99036;-73
2022/11/25 11:20:37;;;;;;;83.50;42.10;;;;;;;5.67;79.39;100382.09;126493;1272;99108;-73
2022/11/25 11:23:49;;;;;;;94.70;48.80;;;;;;;5.63;79.55;100381.76;126589;1280;98008;-72
2022/11/25 11:27:02;;;;;;;87.20;43.20;;;;;;;5.59;79.54;100382.89;126624;1283;97982;-73
2022/11/25 11:30:14;;;;;;;81.90;37.70;;;;;;;5.62;79.56;100385.52;126684;1280;98077;-72
2022/11/25 11:33:32;;;;;;;81.20;39.90;;;;;;;5.66;79.31;100386.42;126672;1280;99150;-72
2022/11/25 11:36:48;;;;;;;79.80;39.70;;;;;;;5.68;79.48;100385.57;126491;1282;99047;-73
2022/11/25 11:40:01;;;;;;;79.70;39.30;;;;;;;5.68;79.29;100387.29;126639;1277;98637;-72
2022/11/25 11:43:28;;;;;;;81.60;38.50;;;;;;;5.67;79.49;100384.75;126609;1282;98869;-73
2022/11/25 11:46:46;;;;;;;81.90;37.50;;;;;;;5.65;79.24;100385.83;126563;1286;97928;-72
2022/11/25 11:50:02;;;;;;;73.90;34.40;;;;;;;5.66;79.20;100385.04;126599;1277;98097;-72
2022/11/25 11:53:19;;;;;;;80.00;37.60;;;;;;;5.66;79.08;100386.77;126534;1280;99084;-73
2022/11/25 11:56:33;;;;;;;79.80;39.90;;;;;;;5.68;79.21;100390.11;126678;1287;98092;-74
2022/11/25 11:59:47;;;;;;;82.30;38.50;;;;;;;5.66;79.15;100389.44;126764;1285;98517;-71
2022/11/25 12:02:58;;;;;;;83.00;41.00;;;;;;;5.59;79.10;100393.49;126652;1278;99138;-73
2022/11/25 12:06:05;;;;;;;89.00;44.20;;;;;;;5.54;79.17;100394.04;126774;1282;98849;-71
2022/11/25 12:09:14;;;;;;;83.30;42.00;;;;;;;5.50;79.20;100389.95;126659;1288;99147;-71
2022/11/25 12:12:20;;;;;;;89.20;42.00;;;;;;;5.46;79.23;100395.35;126910;1287;99157;-72
2022/11/25 12:15:36;;;;;;;79.40;40.60;;;;;;;5.40;79.29;100400.20;126818;1286;98803;-71
2022/11/25 12:18:48;;;;;;;87.60;40.30;;;;;;;5.35;79.21;100401.48;126736;1282;97932;-71
2022/11/25 12:21:55;;;;;;;82.20;39.90;;;;;;;5.26;79.06;100401.59;126816;1288;98659;-72
2022/11/25 12:25:05;;;;;;;89.50;41.00;;;;;;;5.19;79.11;100403.75;126729;1281;99282;-72
2022/11/25 12:28:14;;;;;;;87.60;42.00;;;;;;;5.07;78.98;100402.88;126793;1287;98073;-71
2022/11/25 12:31:22;;;;;;;98.70;50.50;;;;;;;4.97;78.97;100402.59;126666;1281;98075;-73
2022/11/25 12:34:33;;;;;;;80.20;38.90;;;;;;;4.92;79.30;100408.41;126854;1285;99309;-71
2022/11/25 12:37:42;;;;;;;95.50;48.10;;;;;;;4.88;79.38;100410.10;126667;1288;99106;-71
2022/11/25 12:40:49;;;;;;;93.60;46.20;;;;;;;4.87;79.31;100408.44;126788;1281;98040;-73
2022/11/25 12:43:59;;;;;;;85.30;41.10;;;;;;;4.89;79.11;100408.06;126743;1288;99198;-70
2022/11/25 12:47:02;;;;;;;80.90;39.20;;;;;;;4.91;79.22;100406.20;126815;1279;99200;-72
2022/11/25 12:50:13;;;;;;;85.70;42.00;;;;;;;4.91;79.07;100407.58;126516;1284;98106;-71
2022/11/25 12:53:26;;;;;;;85.40;41.10;;;;;;;4.86;79.16;100406.00;126628;1296;98003;-72
2022/11/25 12:56:48;;;;;;;83.40;40.60;;;;;;;4.83;79.08;100405.19;126652;1283;99138;-71
2022/11/25 13:00:04;;;;;;;86.10;42.60;;;;;;;4.80;79.09;100408.95;126653;1282;98643;-72
2022/11/25 13:03:42;;;;;;;84.40;41.90;;;;;;;4.70;79.16;100412.77;126754;1282;99103;-72
2022/11/25 13:07:05;;;;;;;90.00;44.10;;;;;;;4.61;79.34;100414.13;126432;1280;99145;-73
2022/11/25 13:10:19;;;;;;;;;;;;;;;4.57;79.38;100418.53;126724;1277;98752;-72
2022/11/25 13:13:41;;;;;;;91.30;42.30;;;;;;;4.52;79.30;100416.59;126508;1282;97990;-70
2022/11/25 13:16:47;;;;;;;92.10;44.40;;;;;;;4.45;79.30;100414.09;126629;1288;99166;-72
2022/11/25 13:20:10;;;;;;;81.60;38.60;;;;;;;4.40;79.39;100417.06;126591;1281;97991;-73
2022/11/25 13:23:51;;;;;;;101.70;43.00;;;;;;;4.40;79.39;100422.70;126646;1290;97980;-73
2022/11/25 13:27:00;;;;;;;86.20;38.90;;;;;;;4.41;79.31;100423.39;126341;1276;98098;-73
2022/11/25 13:30:05;;;;;;;84.80;41.10;;;;;;;4.39;79.32;100424.70;126761;1281;99150;-73
2022/11/25 13:33:44;;;;;;;115.60;66.40;;;;;;;4.38;79.40;100430.12;126794;1280;98021;-72
2022/11/25 13:36:49;;;;;;;79.10;38.30;;;;;;;4.37;79.21;100434.00;126835;1281;99178;-73
2022/11/25 13:40:32;;;;;;;80.20;39.30;;;;;;;4.31;79.24;100435.48;126877;1274;97994;-72
2022/11/25 13:43:50;;;;;;;105.40;55.90;;;;;;;4.31;79.44;100432.11;126826;1280;99164;-73
2022/11/25 13:46:54;;;;;;;131.60;65.50;;;;;;;4.30;79.34;100430.23;126834;1288;99172;-73
2022/11/25 13:50:00;;;;;;;103.20;53.20;;;;;;;4.29;79.38;100432.12;126906;1280;98004;-71
2022/11/25 13:53:15;;;;;;;100.90;48.20;;;;;;;4.27;79.43;100431.75;126694;1280;98678;-72
2022/11/25 13:56:28;;;;;;;177.80;78.40;;;;;;;4.23;79.36;100442.40;126861;1274;97968;-73
2022/11/25 13:59:37;;;;;;;142.60;65.40;;;;;;;4.20;79.44;100440.83;126661;1286;99142;-76
2022/11/25 14:02:43;;;;;;;139.10;66.60;;;;;;;4.20;79.45;100435.52;126647;1281;98038;-74
2022/11/25 14:06:01;;;;;;;129.40;62.20;;;;;;;4.22;79.40;100432.58;126495;1280;98141;-73
2022/11/25 14:09:11;;;;;;;118.50;56.60;;;;;;;4.25;79.39;100418.50;126690;1288;97978;-71
2022/11/25 14:12:47;;;;;;;106.80;46.50;;;;;;;4.20;79.32;100423.41;126733;1287;98072;-72
2022/11/25 14:16:08;;;;;;;88.90;40.80;;;;;;;4.14;79.48;100437.39;126785;1280;98062;-73
2022/11/25 14:19:31;;;;;;;121.80;59.20;;;;;;;4.10;79.42;100437.14;126618;1280;99035;-73